ASA7T PAFA-PANC
Flight info
| Callsign | ASA7T |
|---|---|
| Flight time | 0h 45m |
| Altitude | 31000 |
| Route | PUYVO5 PUYVO KROTO5 |
| Aircraft | B738/M-SDE2E3FGHIRWXY/LB1 |
Departure
| Time | 2026-05-01 14:10 |
|---|---|
| Airport | Fairbanks International Airport (PAFA) |
Arrival
| Time | 2026-05-01 14:55 |
|---|---|
| Airport | Ted Stevens Anchorage International Airport (PANC) |
| Time | Latitude | Longitude | Altitude | Speed | Heading |
|---|---|---|---|---|---|
| 2026-05-01 13:51 | 64.82697 | -147.84905 | 435 ft | 0 kts | 301° |
| 2026-05-01 14:06 | 64.82689 | -147.84877 | 435 ft | 4 kts | 321° |
| 2026-05-01 14:06 | 64.82668 | -147.84859 | 428 ft | 4 kts | 15° |
| 2026-05-01 14:06 | 64.82651 | -147.84877 | 420 ft | 1 kts | 37° |
| 2026-05-01 14:06 | 64.82649 | -147.84881 | 435 ft | 0 kts | 37° |
| 2026-05-01 14:08 | 64.82654 | -147.84871 | 430 ft | 4 kts | 38° |
| 2026-05-01 14:08 | 64.82679 | -147.84790 | 435 ft | 8 kts | 69° |
| 2026-05-01 14:09 | 64.82722 | -147.84640 | 431 ft | 14 kts | 45° |
| 2026-05-01 14:09 | 64.82698 | -147.84465 | 427 ft | 11 kts | 134° |
| 2026-05-01 14:09 | 64.82645 | -147.84334 | 425 ft | 11 kts | 144° |
| 2026-05-01 14:09 | 64.82573 | -147.84346 | 422 ft | 11 kts | 215° |
| 2026-05-01 14:10 | 64.82438 | -147.84592 | 436 ft | 55 kts | 218° |
| 2026-05-01 14:10 | 64.81945 | -147.85494 | 431 ft | 122 kts | 218° |
| 2026-05-01 14:10 | 64.81132 | -147.86978 | 491 ft | 169 kts | 218° |
| 2026-05-01 14:10 | 64.80194 | -147.88733 | 1109 ft | 173 kts | 218° |
| 2026-05-01 14:11 | 64.79241 | -147.90578 | 1763 ft | 185 kts | 219° |
| 2026-05-01 14:11 | 64.77158 | -147.95482 | 2260 ft | 243 kts | 248° |
| 2026-05-01 14:11 | 64.76580 | -147.99297 | 2762 ft | 259 kts | 246° |
| 2026-05-01 14:12 | 64.75941 | -148.03235 | 3733 ft | 255 kts | 245° |
| 2026-05-01 14:12 | 64.75295 | -148.07059 | 4779 ft | 252 kts | 245° |
| 2026-05-01 14:12 | 64.74637 | -148.10870 | 5686 ft | 253 kts | 244° |
| 2026-05-01 14:12 | 64.73970 | -148.14671 | 6549 ft | 253 kts | 244° |
| 2026-05-01 14:13 | 64.73297 | -148.18474 | 7439 ft | 252 kts | 244° |
| 2026-05-01 14:13 | 64.72841 | -148.21029 | 8067 ft | 250 kts | 243° |
| 2026-05-01 14:13 | 64.71953 | -148.25977 | 9289 ft | 249 kts | 243° |
| 2026-05-01 14:13 | 64.71278 | -148.29714 | 10123 ft | 250 kts | 243° |
| 2026-05-01 14:14 | 64.70537 | -148.33452 | 10657 ft | 261 kts | 233° |
| 2026-05-01 14:14 | 64.69227 | -148.36575 | 10856 ft | 280 kts | 215° |
| 2026-05-01 14:14 | 64.67543 | -148.39262 | 11053 ft | 304 kts | 212° |
| 2026-05-01 14:14 | 64.65707 | -148.42051 | 11229 ft | 325 kts | 212° |
| 2026-05-01 14:15 | 64.63775 | -148.44964 | 11537 ft | 341 kts | 212° |
| 2026-05-01 14:15 | 64.61767 | -148.47999 | 12173 ft | 346 kts | 212° |
| 2026-05-01 14:15 | 64.59735 | -148.51087 | 12917 ft | 349 kts | 212° |
| 2026-05-01 14:15 | 64.57693 | -148.54200 | 13642 ft | 353 kts | 212° |
| 2026-05-01 14:16 | 64.55629 | -148.57348 | 14306 ft | 356 kts | 212° |
| 2026-05-01 14:16 | 64.53549 | -148.60521 | 15002 ft | 359 kts | 212° |
| 2026-05-01 14:16 | 64.51449 | -148.63722 | 15670 ft | 364 kts | 212° |
| 2026-05-01 14:16 | 64.49322 | -148.66960 | 16371 ft | 367 kts | 212° |
| 2026-05-01 14:17 | 64.47176 | -148.70224 | 17115 ft | 369 kts | 212° |
| 2026-05-01 14:17 | 64.45026 | -148.73488 | 17827 ft | 371 kts | 212° |
| 2026-05-01 14:17 | 64.42859 | -148.76772 | 18440 ft | 374 kts | 212° |
| 2026-05-01 14:17 | 64.40667 | -148.80085 | 19023 ft | 377 kts | 212° |
| 2026-05-01 14:18 | 64.38489 | -148.83373 | 19614 ft | 380 kts | 212° |
| 2026-05-01 14:18 | 64.36267 | -148.86723 | 20196 ft | 382 kts | 212° |
| 2026-05-01 14:18 | 64.34029 | -148.90085 | 20735 ft | 385 kts | 212° |
| 2026-05-01 14:18 | 64.32537 | -148.92319 | 21079 ft | 387 kts | 212° |
| 2026-05-01 14:19 | 64.29505 | -148.96880 | 21791 ft | 391 kts | 212° |
| 2026-05-01 14:19 | 64.27220 | -149.00348 | 22330 ft | 393 kts | 212° |
| 2026-05-01 14:19 | 64.24955 | -149.03790 | 22777 ft | 397 kts | 212° |
| 2026-05-01 14:19 | 64.22626 | -149.07322 | 23122 ft | 404 kts | 212° |
| 2026-05-01 14:20 | 64.20277 | -149.10875 | 23613 ft | 405 kts | 212° |
| 2026-05-01 14:20 | 64.15551 | -149.18000 | 24482 ft | 408 kts | 211° |
| 2026-05-01 14:20 | 64.13168 | -149.21580 | 24855 ft | 411 kts | 211° |
| 2026-05-01 14:21 | 64.10769 | -149.25178 | 25246 ft | 413 kts | 211° |
| 2026-05-01 14:21 | 64.08362 | -149.28776 | 25682 ft | 413 kts | 211° |
| 2026-05-01 14:21 | 64.06762 | -149.31130 | 26037 ft | 411 kts | 208° |
| 2026-05-01 14:22 | 64.00483 | -149.35514 | 26780 ft | 411 kts | 191° |
| 2026-05-01 14:22 | 63.97684 | -149.36745 | 26792 ft | 409 kts | 191° |
| 2026-05-01 14:22 | 63.94887 | -149.37984 | 26800 ft | 408 kts | 191° |
| 2026-05-01 14:22 | 63.93011 | -149.38828 | 26799 ft | 406 kts | 191° |
| 2026-05-01 14:23 | 63.90237 | -149.40089 | 26811 ft | 406 kts | 191° |
| 2026-05-01 14:23 | 63.87500 | -149.41346 | 26805 ft | 406 kts | 191° |
| 2026-05-01 14:23 | 63.84737 | -149.42624 | 26810 ft | 406 kts | 191° |
| 2026-05-01 14:23 | 63.81964 | -149.43906 | 26812 ft | 406 kts | 191° |
| 2026-05-01 14:24 | 63.79194 | -149.45186 | 26803 ft | 407 kts | 191° |
| 2026-05-01 14:24 | 63.76415 | -149.46468 | 26795 ft | 408 kts | 191° |
| 2026-05-01 14:24 | 63.73629 | -149.47750 | 26807 ft | 409 kts | 191° |
| 2026-05-01 14:24 | 63.70835 | -149.49033 | 26859 ft | 410 kts | 191° |
| 2026-05-01 14:25 | 63.68031 | -149.50318 | 26857 ft | 411 kts | 191° |
| 2026-05-01 14:25 | 63.65234 | -149.51597 | 26856 ft | 410 kts | 192° |
| 2026-05-01 14:25 | 63.62434 | -149.52874 | 26866 ft | 410 kts | 192° |
| 2026-05-01 14:25 | 63.59623 | -149.54152 | 26868 ft | 411 kts | 192° |
| 2026-05-01 14:26 | 63.56818 | -149.55430 | 26877 ft | 411 kts | 192° |
| 2026-05-01 14:26 | 63.51192 | -149.57973 | 26872 ft | 413 kts | 192° |
| 2026-05-01 14:26 | 63.48409 | -149.59230 | 26882 ft | 413 kts | 192° |
| 2026-05-01 14:27 | 63.45589 | -149.60503 | 26891 ft | 414 kts | 192° |
| 2026-05-01 14:27 | 63.42756 | -149.61776 | 26868 ft | 415 kts | 192° |
| 2026-05-01 14:27 | 63.39921 | -149.63040 | 26874 ft | 415 kts | 191° |
| 2026-05-01 14:28 | 63.34233 | -149.65572 | 26918 ft | 418 kts | 192° |
| 2026-05-01 14:28 | 63.31390 | -149.66839 | 26918 ft | 415 kts | 192° |
| 2026-05-01 14:28 | 63.28573 | -149.68097 | 26922 ft | 410 kts | 192° |
| 2026-05-01 14:28 | 63.25792 | -149.69338 | 26937 ft | 406 kts | 192° |
| 2026-05-01 14:29 | 63.23018 | -149.70572 | 26921 ft | 408 kts | 192° |
| 2026-05-01 14:29 | 63.20216 | -149.71815 | 26925 ft | 412 kts | 191° |
| 2026-05-01 14:30 | 63.11761 | -149.75537 | 26928 ft | 409 kts | 192° |
| 2026-05-01 14:30 | 63.08969 | -149.76769 | 26922 ft | 408 kts | 191° |
| 2026-05-01 14:30 | 63.06189 | -149.77983 | 26911 ft | 408 kts | 191° |
| 2026-05-01 14:31 | 63.00610 | -149.80416 | 26937 ft | 409 kts | 191° |
| 2026-05-01 14:31 | 62.97818 | -149.81631 | 26932 ft | 411 kts | 191° |
| 2026-05-01 14:31 | 62.95042 | -149.82836 | 26935 ft | 413 kts | 191° |
| 2026-05-01 14:31 | 62.92213 | -149.84063 | 26933 ft | 414 kts | 191° |
| 2026-05-01 14:32 | 62.89371 | -149.85293 | 26937 ft | 416 kts | 191° |
| 2026-05-01 14:32 | 62.86520 | -149.86525 | 26921 ft | 418 kts | 191° |
| 2026-05-01 14:32 | 62.83662 | -149.87758 | 26917 ft | 418 kts | 191° |
| 2026-05-01 14:32 | 62.80814 | -149.88984 | 26916 ft | 418 kts | 191° |
| 2026-05-01 14:33 | 62.77951 | -149.90208 | 26930 ft | 417 kts | 191° |
| 2026-05-01 14:33 | 62.75097 | -149.91431 | 26911 ft | 418 kts | 191° |
| 2026-05-01 14:33 | 62.72244 | -149.92651 | 26910 ft | 418 kts | 191° |
| 2026-05-01 14:33 | 62.69443 | -149.93848 | 26807 ft | 412 kts | 191° |
| 2026-05-01 14:34 | 62.66658 | -149.95036 | 26377 ft | 403 kts | 191° |
| 2026-05-01 14:34 | 62.63921 | -149.96201 | 25866 ft | 397 kts | 191° |
| 2026-05-01 14:34 | 62.61227 | -149.97350 | 25292 ft | 393 kts | 192° |
| 2026-05-01 14:34 | 62.58555 | -149.98480 | 24774 ft | 388 kts | 192° |
| 2026-05-01 14:35 | 62.55915 | -149.99591 | 24253 ft | 384 kts | 192° |
| 2026-05-01 14:35 | 62.53298 | -150.00672 | 23735 ft | 381 kts | 192° |
| 2026-05-01 14:35 | 62.50703 | -150.01766 | 23133 ft | 377 kts | 191° |
| 2026-05-01 14:35 | 62.48181 | -150.02832 | 22631 ft | 371 kts | 191° |
| 2026-05-01 14:36 | 62.45634 | -150.03914 | 22117 ft | 365 kts | 191° |
| 2026-05-01 14:36 | 62.43187 | -150.04948 | 21627 ft | 360 kts | 191° |
| 2026-05-01 14:36 | 62.40740 | -150.05977 | 21133 ft | 356 kts | 191° |
| 2026-05-01 14:36 | 62.38322 | -150.06990 | 20655 ft | 351 kts | 191° |
| 2026-05-01 14:37 | 62.35938 | -150.07988 | 20158 ft | 347 kts | 190° |
| 2026-05-01 14:37 | 62.33579 | -150.08970 | 19687 ft | 343 kts | 190° |
| 2026-05-01 14:37 | 62.31252 | -150.09936 | 19215 ft | 339 kts | 190° |
| 2026-05-01 14:37 | 62.28941 | -150.10877 | 18801 ft | 334 kts | 189° |
| 2026-05-01 14:38 | 62.26671 | -150.11669 | 18435 ft | 328 kts | 188° |
| 2026-05-01 14:38 | 62.24425 | -150.12391 | 17978 ft | 325 kts | 188° |
| 2026-05-01 14:38 | 62.22197 | -150.13096 | 17498 ft | 322 kts | 188° |
| 2026-05-01 14:38 | 62.19992 | -150.13795 | 17038 ft | 318 kts | 188° |
| 2026-05-01 14:39 | 62.17852 | -150.14479 | 16684 ft | 313 kts | 188° |
| 2026-05-01 14:39 | 62.15705 | -150.15171 | 16265 ft | 312 kts | 188° |
| 2026-05-01 14:39 | 62.13558 | -150.15864 | 15818 ft | 312 kts | 188° |
| 2026-05-01 14:39 | 62.11390 | -150.16565 | 15355 ft | 320 kts | 188° |
| 2026-05-01 14:40 | 62.09174 | -150.17281 | 14900 ft | 323 kts | 188° |
| 2026-05-01 14:40 | 62.06959 | -150.17997 | 14408 ft | 320 kts | 188° |
| 2026-05-01 14:40 | 62.04762 | -150.18709 | 13977 ft | 317 kts | 188° |
| 2026-05-01 14:40 | 62.02597 | -150.19414 | 13483 ft | 315 kts | 188° |
| 2026-05-01 14:41 | 62.00437 | -150.20105 | 13021 ft | 310 kts | 188° |
| 2026-05-01 14:41 | 61.98330 | -150.20778 | 12599 ft | 304 kts | 188° |
| 2026-05-01 14:41 | 61.96252 | -150.21466 | 12177 ft | 299 kts | 188° |
| 2026-05-01 14:41 | 61.94206 | -150.22125 | 11755 ft | 296 kts | 187° |
| 2026-05-01 14:42 | 61.92179 | -150.22773 | 11330 ft | 293 kts | 187° |
| 2026-05-01 14:42 | 61.90177 | -150.23413 | 10924 ft | 289 kts | 187° |
| 2026-05-01 14:42 | 61.88214 | -150.24040 | 10786 ft | 278 kts | 187° |
| 2026-05-01 14:42 | 61.86362 | -150.24622 | 10636 ft | 265 kts | 187° |
| 2026-05-01 14:43 | 61.84575 | -150.25198 | 10512 ft | 247 kts | 186° |
| 2026-05-01 14:43 | 61.82937 | -150.25728 | 10414 ft | 236 kts | 186° |
| 2026-05-01 14:43 | 61.81342 | -150.26239 | 10316 ft | 227 kts | 186° |
| 2026-05-01 14:43 | 61.79799 | -150.26732 | 10230 ft | 222 kts | 186° |
| 2026-05-01 14:44 | 61.78275 | -150.27217 | 10147 ft | 220 kts | 186° |
| 2026-05-01 14:44 | 61.75204 | -150.28190 | 9924 ft | 229 kts | 186° |
| 2026-05-01 14:44 | 61.73621 | -150.28691 | 9628 ft | 230 kts | 186° |
| 2026-05-01 14:45 | 61.72054 | -150.29190 | 9325 ft | 228 kts | 186° |
| 2026-05-01 14:45 | 61.68922 | -150.29419 | 8737 ft | 224 kts | 166° |
| 2026-05-01 14:45 | 61.67425 | -150.28576 | 8447 ft | 222 kts | 165° |
| 2026-05-01 14:46 | 61.65937 | -150.27715 | 8147 ft | 222 kts | 164° |
| 2026-05-01 14:46 | 61.62966 | -150.25987 | 7579 ft | 221 kts | 163° |
| 2026-05-01 14:46 | 61.61485 | -150.25140 | 7296 ft | 220 kts | 163° |
| 2026-05-01 14:47 | 61.60002 | -150.24294 | 7012 ft | 220 kts | 162° |
| 2026-05-01 14:47 | 61.58546 | -150.23456 | 6735 ft | 219 kts | 162° |
| 2026-05-01 14:47 | 61.57067 | -150.22618 | 6438 ft | 221 kts | 162° |
| 2026-05-01 14:48 | 61.54075 | -150.20909 | 5840 ft | 224 kts | 162° |
| 2026-05-01 14:48 | 61.52558 | -150.20045 | 5531 ft | 226 kts | 162° |
| 2026-05-01 14:48 | 61.49488 | -150.18306 | 4931 ft | 230 kts | 161° |
| 2026-05-01 14:49 | 61.46404 | -150.16513 | 4397 ft | 229 kts | 161° |
| 2026-05-01 14:49 | 61.43435 | -150.14650 | 3853 ft | 216 kts | 160° |
| 2026-05-01 14:50 | 61.41567 | -150.13548 | 3569 ft | 206 kts | 160° |
| 2026-05-01 14:50 | 61.37996 | -150.11544 | 2994 ft | 188 kts | 160° |
| 2026-05-01 14:51 | 61.36763 | -150.10854 | 2840 ft | 180 kts | 160° |
| 2026-05-01 14:51 | 61.34467 | -150.09571 | 2532 ft | 163 kts | 160° |
| 2026-05-01 14:52 | 61.32365 | -150.08391 | 2298 ft | 157 kts | 160° |
| 2026-05-01 14:52 | 61.31310 | -150.07800 | 2144 ft | 156 kts | 160° |
| 2026-05-01 14:52 | 61.29202 | -150.06620 | 1886 ft | 158 kts | 161° |
| 2026-05-01 14:53 | 61.28134 | -150.06021 | 1760 ft | 159 kts | 161° |
| 2026-05-01 14:53 | 61.27055 | -150.05418 | 1610 ft | 161 kts | 161° |
| 2026-05-01 14:53 | 61.25967 | -150.04809 | 1391 ft | 162 kts | 162° |
| 2026-05-01 14:53 | 61.24889 | -150.04205 | 1184 ft | 159 kts | 162° |
| 2026-05-01 14:54 | 61.23856 | -150.03630 | 994 ft | 150 kts | 163° |
| 2026-05-01 14:54 | 61.22849 | -150.03063 | 738 ft | 150 kts | 164° |
| 2026-05-01 14:54 | 61.21818 | -150.02487 | 557 ft | 157 kts | 165° |
| 2026-05-01 14:54 | 61.20750 | -150.01889 | 380 ft | 160 kts | 165° |
| 2026-05-01 14:55 | 61.19655 | -150.01261 | 163 ft | 162 kts | 166° |
| 2026-05-01 14:55 | 61.18660 | -150.00716 | 133 ft | 130 kts | 164° |
| 2026-05-01 14:55 | 61.17933 | -150.00308 | 118 ft | 87 kts | 164° |
| 2026-05-01 14:55 | 61.17494 | -150.00066 | 111 ft | 45 kts | 165° |
| 2026-05-01 14:56 | 61.17323 | -149.99970 | 126 ft | 13 kts | 163° |
| 2026-05-01 14:56 | 61.17289 | -149.99804 | 125 ft | 15 kts | 89° |
| 2026-05-01 14:56 | 61.17289 | -149.99591 | 121 ft | 15 kts | 91° |
| 2026-05-01 14:56 | 61.17289 | -149.99370 | 118 ft | 16 kts | 82° |
| 2026-05-01 14:57 | 61.17304 | -149.99140 | 109 ft | 14 kts | 90° |
| 2026-05-01 14:57 | 61.17352 | -149.98806 | 108 ft | 8 kts | 45° |
| 2026-05-01 14:57 | 61.17405 | -149.98743 | 107 ft | 9 kts | 27° |
| 2026-05-01 14:58 | 61.17446 | -149.98698 | 106 ft | 3 kts | 27° |
| 2026-05-01 14:58 | 61.17449 | -149.98694 | 107 ft | 0 kts | 27° |